Republic, Washington
Current Conditions -  °F | °C
As of 8:53 AM on Friday 28 Nov 2014 (Local Time) from KOMK Reporting Station
Overcast Overcast  
Wind Chill:   Ceiling: 8000
Heat Index:   Visibility: 10mi
Dew Point:   Wind: 12mph
Humidity: 76%   Direction: 190°S
Pressure: 29.4"   Gusts: NA
Location:  48.65°N, 118.74°W
Report Text: KOMK 281653Z AUTO 19010KT 10SM BKN080 OVC090 07/03 A2940 RMK AO2 SLP961 T00720033
Loading
Personal Weather Stations






























Interactive Weather Map New forecast layout! Learn more

10-Day Weather Forecast

Advertisements
Track Severe Weather on mobile